createdAt,value
2019-05-09T00:01:35.302Z,53.10
2019-05-09T00:04:04.453Z,53.50
2019-05-09T00:06:34.104Z,54.00
2019-05-09T00:09:03.891Z,53.80
2019-05-09T00:11:33.672Z,54.20
2019-05-09T00:14:04.422Z,53.90
2019-05-09T00:16:33.734Z,53.90
2019-05-09T00:19:03.453Z,53.60
2019-05-09T00:21:38.337Z,53.50
2019-05-09T00:24:07.714Z,53.50
2019-05-09T00:26:36.914Z,53.40
2019-05-09T00:29:10.755Z,53.20
2019-05-09T00:31:50.516Z,53.10
2019-05-09T00:34:27.904Z,53.30
2019-05-09T00:36:57.055Z,53.20
2019-05-09T00:39:26.140Z,53.30
2019-05-09T00:41:55.282Z,52.70
2019-05-09T00:44:27.469Z,53.30
2019-05-09T00:47:05.617Z,53.30
2019-05-09T00:49:35.160Z,53.30
2019-05-09T00:52:04.280Z,53.20
2019-05-09T00:54:33.557Z,53.30
2019-05-09T00:57:03.323Z,53.10
2019-05-09T00:59:33.348Z,53.20
2019-05-09T01:02:03.906Z,53.20
2019-05-09T01:04:33.500Z,53.30
2019-05-09T01:07:03.574Z,53.20
2019-05-09T01:09:33.493Z,53.30
2019-05-09T01:12:04.118Z,55.00
2019-05-09T01:14:34.038Z,54.20
2019-05-09T01:17:04.201Z,53.80
2019-05-09T01:19:33.827Z,53.60
2019-05-09T01:22:03.867Z,53.60
2019-05-09T01:24:33.754Z,53.60
2019-05-09T01:27:03.722Z,53.50
2019-05-09T01:29:33.734Z,53.60
2019-05-09T01:32:06.127Z,53.60
2019-05-09T01:34:35.629Z,53.60
2019-05-09T01:37:08.809Z,53.70
2019-05-09T01:39:37.944Z,53.80
2019-05-09T01:42:07.281Z,53.60
2019-05-09T01:44:36.590Z,53.70
2019-05-09T01:47:05.678Z,53.80
2019-05-09T01:49:34.777Z,53.70
2019-05-09T01:52:03.962Z,53.70
2019-05-09T01:54:35.027Z,53.80
2019-05-09T01:57:04.077Z,53.80
2019-05-09T01:59:34.011Z,53.80
2019-05-09T02:02:08.085Z,53.90
2019-05-09T02:04:34.314Z,54.10
2019-05-09T02:07:04.258Z,53.90
2019-05-09T02:09:34.213Z,54.00
2019-05-09T02:12:04.146Z,54.10
2019-05-09T02:14:49.435Z,53.90
2019-05-09T02:17:36.322Z,53.80
2019-05-09T02:20:05.666Z,53.90
2019-05-09T02:22:35.152Z,53.90
2019-05-09T02:25:05.690Z,53.80
2019-05-09T02:27:34.866Z,53.80
2019-05-09T02:30:05.635Z,53.70
2019-05-09T02:32:35.147Z,53.70
2019-05-09T02:35:05.193Z,53.80
2019-05-09T02:37:34.420Z,53.80
2019-05-09T02:40:03.500Z,53.90
2019-05-09T02:42:32.712Z,53.80
2019-05-09T02:45:01.777Z,53.80
2019-05-09T02:47:30.929Z,53.80
2019-05-09T02:50:00.141Z,53.80
2019-05-09T02:52:29.271Z,53.90
2019-05-09T02:54:58.676Z,53.90
2019-05-09T02:57:29.401Z,53.90
2019-05-09T03:00:08.415Z,53.80
2019-05-09T03:02:59.549Z,53.80
2019-05-09T03:05:29.673Z,53.90
2019-05-09T03:07:59.470Z,53.90
2019-05-09T03:10:29.477Z,53.90
2019-05-09T03:12:59.546Z,53.90
2019-05-09T03:15:29.530Z,53.90
2019-05-09T03:17:59.924Z,54.00
2019-05-09T03:20:49.377Z,54.00
2019-05-09T03:23:19.317Z,54.10
2019-05-09T03:25:48.688Z,54.00
2019-05-09T03:28:28.372Z,54.10
2019-05-09T03:30:59.407Z,53.80
2019-05-09T03:33:32.359Z,53.70
2019-05-09T03:35:59.660Z,53.80
2019-05-09T03:38:28.836Z,53.70
2019-05-09T03:40:58.129Z,54.00
2019-05-09T03:43:27.583Z,53.70
2019-05-09T03:46:02.890Z,54.00
2019-05-09T03:48:37.597Z,54.10
2019-05-09T03:51:08.108Z,53.90
2019-05-09T03:53:37.999Z,54.10
2019-05-09T03:56:09.911Z,54.00
2019-05-09T03:58:39.022Z,53.80
2019-05-09T04:01:10.691Z,53.90
2019-05-09T04:03:38.897Z,54.00
2019-05-09T04:06:08.352Z,53.90
2019-05-09T04:08:37.848Z,53.90
2019-05-09T04:11:08.650Z,54.80
2019-05-09T04:13:43.205Z,54.40
2019-05-09T04:16:12.260Z,54.40
2019-05-09T04:18:41.497Z,55.80
2019-05-09T04:21:10.690Z,54.90
2019-05-09T04:23:39.873Z,54.30
2019-05-09T04:26:27.906Z,54.00
2019-05-09T04:28:57.800Z,54.00
2019-05-09T04:31:28.010Z,54.30
2019-05-09T04:33:57.614Z,54.30
2019-05-09T04:36:38.895Z,54.30
2019-05-09T04:39:18.009Z,54.40
2019-05-09T04:41:42.571Z,54.90
2019-05-09T04:44:21.771Z,54.50
2019-05-09T04:46:54.230Z,54.40
2019-05-09T04:49:22.257Z,54.50
2019-05-09T04:51:51.254Z,54.30
2019-05-09T04:54:20.543Z,54.30
2019-05-09T04:56:49.923Z,54.40
2019-05-09T04:59:18.928Z,54.40
2019-05-09T05:02:18.126Z,54.50
2019-05-09T05:04:47.904Z,54.30
2019-05-09T05:07:18.026Z,54.90
2019-05-09T05:09:48.358Z,54.10
2019-05-09T05:12:18.723Z,54.10
2019-05-09T05:14:48.139Z,54.20
2019-05-09T05:17:18.154Z,54.20
2019-05-09T05:19:47.995Z,54.40
2019-05-09T05:22:22.805Z,54.30
2019-05-09T05:24:58.703Z,54.40
2019-05-09T05:27:27.838Z,54.40
2019-05-09T05:29:58.331Z,54.40
2019-05-09T05:32:42.526Z,54.50
2019-05-09T05:35:33.465Z,54.40
2019-05-09T05:38:02.610Z,54.90
2019-05-09T05:40:33.710Z,54.60
2019-05-09T05:43:02.699Z,54.60
2019-05-09T05:45:34.192Z,54.70
2019-05-09T05:48:08.679Z,54.70
2019-05-09T05:50:38.262Z,54.40
2019-05-09T05:53:07.951Z,54.50
2019-05-09T05:55:37.957Z,54.40
2019-05-09T05:58:08.552Z,54.10
2019-05-09T06:00:38.197Z,54.20
2019-05-09T06:03:08.741Z,53.80
2019-05-09T06:05:38.458Z,54.80
2019-05-09T06:08:08.322Z,54.10
2019-05-09T06:10:38.185Z,54.10
2019-05-09T06:13:07.942Z,54.20
2019-05-09T06:15:38.031Z,54.10
2019-05-09T06:18:08.061Z,54.40
2019-05-09T06:20:38.550Z,54.40
2019-05-09T06:23:08.631Z,54.50
2019-05-09T06:25:38.957Z,54.40
2019-05-09T06:28:08.762Z,54.40
2019-05-09T06:30:41.146Z,54.50
2019-05-09T06:33:09.154Z,54.40
2019-05-09T06:35:38.578Z,54.20
2019-05-09T06:38:07.942Z,54.20
2019-05-09T06:40:38.312Z,54.20
2019-05-09T06:43:21.876Z,54.20
2019-05-09T06:46:08.729Z,54.40
2019-05-09T06:48:38.039Z,54.10
2019-05-09T06:51:07.404Z,54.20
2019-05-09T06:53:38.014Z,54.00
2019-05-09T06:56:07.694Z,54.00
2019-05-09T06:58:38.360Z,54.00
2019-05-09T07:01:18.258Z,54.00
2019-05-09T07:03:49.771Z,54.10
2019-05-09T07:06:40.878Z,54.10
2019-05-09T07:09:14.113Z,54.00
2019-05-09T07:11:43.182Z,53.90
2019-05-09T07:14:33.277Z,53.80
2019-05-09T07:17:02.529Z,53.80
2019-05-09T07:19:31.930Z,53.80
2019-05-09T07:22:23.015Z,53.80
2019-05-09T07:25:10.961Z,53.50
2019-05-09T07:27:40.734Z,53.60
2019-05-09T07:30:17.949Z,53.50
2019-05-09T07:33:09.474Z,53.60
2019-05-09T07:35:38.651Z,53.60
2019-05-09T07:38:08.454Z,53.80
2019-05-09T07:40:38.497Z,53.70
2019-05-09T07:43:08.135Z,53.70
2019-05-09T07:45:38.386Z,53.90
2019-05-09T07:48:07.863Z,53.90
2019-05-09T07:50:38.895Z,54.00
2019-05-09T07:53:08.861Z,53.80
2019-05-09T07:55:38.307Z,53.90
2019-05-09T07:58:08.195Z,53.70
2019-05-09T08:00:38.474Z,53.70
2019-05-09T08:03:12.639Z,53.80
2019-05-09T08:05:38.878Z,53.70
2019-05-09T08:08:11.230Z,53.70
2019-05-09T08:10:40.375Z,53.70
2019-05-09T08:13:12.055Z,53.60
2019-05-09T08:15:40.325Z,53.60
2019-05-09T08:18:09.597Z,53.70
2019-05-09T08:20:40.768Z,53.70
2019-05-09T08:23:09.470Z,53.60
2019-05-09T08:25:38.624Z,53.50
2019-05-09T08:28:09.024Z,53.50
2019-05-09T08:30:40.233Z,53.20
2019-05-09T08:33:10.092Z,53.10
2019-05-09T08:35:39.284Z,53.10
2019-05-09T08:38:08.765Z,53.00
2019-05-09T08:40:38.390Z,53.20
2019-05-09T08:43:07.900Z,52.90
2019-05-09T08:45:38.274Z,52.90
2019-05-09T08:48:09.405Z,52.70
2019-05-09T08:50:51.736Z,52.70
2019-05-09T08:53:20.904Z,52.70
2019-05-09T08:55:50.094Z,52.70
2019-05-09T08:58:19.934Z,52.80
2019-05-09T09:00:49.322Z,52.70
2019-05-09T09:03:18.592Z,52.80
2019-05-09T09:05:48.604Z,52.70
2019-05-09T09:08:18.547Z,52.90
2019-05-09T09:10:48.778Z,52.80
2019-05-09T09:13:18.453Z,52.70
2019-05-09T09:16:04.528Z,52.70
2019-05-09T09:18:18.407Z,52.70
2019-05-09T09:20:48.553Z,52.70
2019-05-09T09:23:18.217Z,52.80
2019-05-09T09:25:48.700Z,52.90
2019-05-09T09:28:18.458Z,52.70
2019-05-09T09:30:48.513Z,52.90
2019-05-09T09:33:17.929Z,53.00
2019-05-09T09:35:48.940Z,52.80
2019-05-09T09:38:17.812Z,52.80
2019-05-09T09:40:47.864Z,52.80
2019-05-09T09:43:17.783Z,52.80
2019-05-09T09:45:48.136Z,53.00
2019-05-09T09:48:18.191Z,52.70
2019-05-09T09:50:51.335Z,52.80
2019-05-09T09:53:18.499Z,52.80
2019-05-09T09:55:48.364Z,52.80
2019-05-09T09:58:19.056Z,52.80
2019-05-09T10:01:03.637Z,52.80
2019-05-09T10:03:33.491Z,52.80
2019-05-09T10:06:02.687Z,53.30
2019-05-09T10:08:31.796Z,52.80
2019-05-09T10:11:00.935Z,52.80
2019-05-09T10:13:30.124Z,52.90
2019-05-09T10:16:29.193Z,52.50
2019-05-09T10:19:18.401Z,52.60
2019-05-09T10:21:51.049Z,52.70
2019-05-09T10:24:20.177Z,52.60
2019-05-09T10:27:09.185Z,52.60
2019-05-09T10:29:39.048Z,52.60
2019-05-09T10:32:18.391Z,52.50
2019-05-09T10:34:48.864Z,52.40
2019-05-09T10:37:18.705Z,52.40
2019-05-09T10:39:49.030Z,52.50
2019-05-09T10:42:31.493Z,52.40
2019-05-09T10:45:23.001Z,52.50
2019-05-09T10:47:52.023Z,52.50
2019-05-09T10:50:21.198Z,52.50
2019-05-09T10:52:50.337Z,52.50
2019-05-09T10:55:19.441Z,52.40
2019-05-09T10:57:52.227Z,52.40
2019-05-09T11:00:19.523Z,52.40
2019-05-09T11:02:48.616Z,52.40
2019-05-09T11:05:18.436Z,52.40
2019-05-09T11:07:49.548Z,52.50
2019-05-09T11:10:25.684Z,52.50
2019-05-09T11:12:49.600Z,52.40
2019-05-09T11:15:18.785Z,52.40
2019-05-09T11:17:47.791Z,52.40
2019-05-09T11:20:19.361Z,52.50
2019-05-09T11:22:48.033Z,52.40
2019-05-09T11:25:17.186Z,52.50
2019-05-09T11:27:48.530Z,52.50
2019-05-09T11:30:17.648Z,52.40
2019-05-09T11:32:48.094Z,52.50
2019-05-09T11:35:17.732Z,52.50
2019-05-09T11:37:48.071Z,52.50
2019-05-09T11:40:17.462Z,52.50
2019-05-09T11:42:48.234Z,52.60
2019-05-09T11:45:17.900Z,53.00
2019-05-09T11:47:47.404Z,52.60
2019-05-09T11:50:22.535Z,52.50
2019-05-09T11:52:49.104Z,52.00
2019-05-09T11:55:29.737Z,52.40
2019-05-09T11:57:49.337Z,52.60
2019-05-09T12:00:18.475Z,53.20
2019-05-09T12:02:49.868Z,52.30
2019-05-09T12:05:19.181Z,52.50
2019-05-09T12:07:48.625Z,52.80
2019-05-09T12:10:18.742Z,52.60
2019-05-09T12:12:48.158Z,52.40
2019-05-09T12:15:17.334Z,52.40
2019-05-09T12:17:56.010Z,52.70
2019-05-09T12:20:18.062Z,53.50
2019-05-09T12:22:48.486Z,53.20
2019-05-09T12:25:18.474Z,52.60
2019-05-09T12:27:48.663Z,53.60
2019-05-09T12:30:18.925Z,53.20
2019-05-09T12:32:48.783Z,52.30
2019-05-09T12:35:19.124Z,51.30
2019-05-09T12:37:48.670Z,50.30
2019-05-09T12:40:20.071Z,50.80
2019-05-09T12:42:50.150Z,49.90
2019-05-09T12:45:19.481Z,50.20
2019-05-09T12:47:48.702Z,50.90
2019-05-09T12:50:18.677Z,51.00
2019-05-09T12:52:48.835Z,50.60
2019-05-09T12:55:18.676Z,50.60
2019-05-09T12:57:48.876Z,51.40
2019-05-09T13:00:18.776Z,51.00
2019-05-09T13:02:48.334Z,51.60
2019-05-09T13:05:18.111Z,51.60
2019-05-09T13:07:48.065Z,51.60
2019-05-09T13:10:19.530Z,51.70
2019-05-09T13:12:48.797Z,51.50
2019-05-09T13:15:20.907Z,50.80
2019-05-09T13:17:50.972Z,50.20
2019-05-09T13:20:20.106Z,49.70
2019-05-09T13:22:49.360Z,49.70
2019-05-09T13:25:19.029Z,48.30
2019-05-09T13:27:52.256Z,49.10
2019-05-09T13:30:19.348Z,49.00
2019-05-09T13:32:49.183Z,49.90
2019-05-09T13:35:19.859Z,49.20
2019-05-09T13:37:49.290Z,49.10
2019-05-09T13:40:19.032Z,48.60
2019-05-09T13:42:49.218Z,48.50
2019-05-09T13:45:18.925Z,49.40
2019-05-09T13:47:49.494Z,48.80
2019-05-09T13:50:20.238Z,49.90
2019-05-09T13:52:49.412Z,49.80
2019-05-09T13:55:18.582Z,49.70
2019-05-09T13:57:48.611Z,48.90
2019-05-09T14:00:18.785Z,48.70
2019-05-09T14:02:48.961Z,49.00
2019-05-09T14:05:19.254Z,49.50
2019-05-09T14:07:49.995Z,49.20
2019-05-09T14:10:19.178Z,49.30
2019-05-09T14:13:04.679Z,49.10
2019-05-09T14:15:19.379Z,48.70
2019-05-09T14:17:53.101Z,49.40
2019-05-09T14:20:19.479Z,49.90
2019-05-09T14:22:49.092Z,50.20
2019-05-09T14:25:19.628Z,50.10
2019-05-09T14:27:52.289Z,50.30
2019-05-09T14:30:19.966Z,49.20
2019-05-09T14:32:49.919Z,48.30
2019-05-09T14:35:19.389Z,47.40
2019-05-09T14:37:48.877Z,47.20
2019-05-09T14:40:19.209Z,47.00
2019-05-09T14:42:49.461Z,47.00
2019-05-09T14:45:18.869Z,47.20
2019-05-09T14:47:48.045Z,47.20
2019-05-09T14:50:18.103Z,47.00
2019-05-09T14:52:49.124Z,47.00
2019-05-09T14:55:18.186Z,46.80
2019-05-09T14:57:48.091Z,47.60
2019-05-09T15:00:18.848Z,47.10
2019-05-09T15:02:48.936Z,47.60
2019-05-09T15:05:18.970Z,48.70
2019-05-09T15:07:48.521Z,48.20
2019-05-09T15:10:18.739Z,48.00
2019-05-09T15:12:48.819Z,48.80
2019-05-09T15:15:18.643Z,48.50
2019-05-09T15:17:49.249Z,48.70
2019-05-09T15:20:18.943Z,47.50
2019-05-09T15:22:48.077Z,48.20
2019-05-09T15:25:19.303Z,48.50
2019-05-09T15:27:48.089Z,48.50
2019-05-09T15:30:18.725Z,48.00
2019-05-09T15:32:51.422Z,47.70
2019-05-09T15:35:18.936Z,48.00
2019-05-09T15:37:48.211Z,47.10
2019-05-09T15:40:17.902Z,47.20
2019-05-09T15:42:47.924Z,47.00
2019-05-09T15:45:18.448Z,47.20
2019-05-09T15:47:48.418Z,47.30
2019-05-09T15:50:22.908Z,47.10
2019-05-09T15:52:49.079Z,47.10
2019-05-09T15:55:18.161Z,47.20
2019-05-09T15:57:48.595Z,47.00
2019-05-09T16:00:19.130Z,47.10
2019-05-09T16:02:48.788Z,47.00
2019-05-09T16:05:18.344Z,47.20
2019-05-09T16:07:48.205Z,47.10
2019-05-09T16:10:18.004Z,47.30
2019-05-09T16:12:48.718Z,47.30
2019-05-09T16:15:18.615Z,47.30
2019-05-09T16:17:48.771Z,47.40
2019-05-09T16:20:36.032Z,47.40
2019-05-09T16:22:48.902Z,47.60
2019-05-09T16:25:18.801Z,47.60
2019-05-09T16:27:48.969Z,47.60
2019-05-09T16:30:18.178Z,47.60
2019-05-09T16:32:48.032Z,47.70
2019-05-09T16:35:18.305Z,47.70
2019-05-09T16:38:00.858Z,47.80
2019-05-09T16:40:18.761Z,47.60
2019-05-09T16:42:48.204Z,47.70
2019-05-09T16:45:18.260Z,47.60
2019-05-09T16:47:48.482Z,47.70
2019-05-09T16:50:18.102Z,47.60
2019-05-09T16:52:48.778Z,47.60
2019-05-09T16:55:22.893Z,47.50
2019-05-09T16:57:52.013Z,47.70
2019-05-09T17:00:32.015Z,47.60
2019-05-09T17:03:01.158Z,47.80
2019-05-09T17:05:30.317Z,47.70
2019-05-09T17:07:59.501Z,47.70
2019-05-09T17:10:29.086Z,47.80
2019-05-09T17:12:58.346Z,47.80
2019-05-09T17:15:29.215Z,47.80
2019-05-09T17:17:58.774Z,47.90
2019-05-09T17:20:34.592Z,48.00
2019-05-09T17:23:13.723Z,48.10
2019-05-09T17:25:38.857Z,48.10
2019-05-09T17:28:08.012Z,48.20
2019-05-09T17:30:38.344Z,48.20
2019-05-09T17:33:07.937Z,48.20
2019-05-09T17:35:38.629Z,48.20
2019-05-09T17:38:08.813Z,48.30
2019-05-09T17:40:39.060Z,48.40
2019-05-09T17:43:08.525Z,48.40
2019-05-09T17:45:41.749Z,48.50
2019-05-09T17:48:08.716Z,49.00
2019-05-09T17:50:38.515Z,48.50
2019-05-09T17:53:08.603Z,48.60
2019-05-09T17:55:38.374Z,48.70
2019-05-09T17:58:08.826Z,48.80
2019-05-09T18:00:38.357Z,49.10
2019-05-09T18:03:07.781Z,49.30
2019-05-09T18:05:38.970Z,49.10
2019-05-09T18:08:08.177Z,49.10
2019-05-09T18:10:38.216Z,49.10
2019-05-09T18:13:07.974Z,49.30
2019-05-09T18:15:37.977Z,49.20
2019-05-09T18:18:07.366Z,49.30
2019-05-09T18:20:37.938Z,49.40
2019-05-09T18:23:08.199Z,49.20
2019-05-09T18:25:38.058Z,49.40
2019-05-09T18:28:07.182Z,49.40
2019-05-09T18:30:38.654Z,49.40
2019-05-09T18:33:19.640Z,49.50
2019-05-09T18:35:48.943Z,49.50
2019-05-09T18:38:28.092Z,49.50
2019-05-09T18:40:57.869Z,49.50
2019-05-09T18:43:27.633Z,49.70
2019-05-09T18:45:57.698Z,49.70
2019-05-09T18:48:28.013Z,49.60
2019-05-09T18:50:57.104Z,49.70
2019-05-09T18:53:27.111Z,49.80
2019-05-09T18:55:56.265Z,49.90
2019-05-09T18:58:25.513Z,50.40
2019-05-09T19:00:55.331Z,50.20
2019-05-09T19:03:24.873Z,50.70
2019-05-09T19:05:54.091Z,50.70
2019-05-09T19:08:23.284Z,51.20
2019-05-09T19:10:52.612Z,51.00
2019-05-09T19:13:21.918Z,50.90
2019-05-09T19:16:15.850Z,50.90
2019-05-09T19:18:58.040Z,50.90
2019-05-09T19:21:37.622Z,51.00
2019-05-09T19:24:06.840Z,50.90
2019-05-09T19:26:39.427Z,51.00
2019-05-09T19:29:09.240Z,50.90
2019-05-09T19:31:38.827Z,51.00
2019-05-09T19:34:08.298Z,51.10
2019-05-09T19:36:37.801Z,51.10
2019-05-09T19:39:08.743Z,51.10
2019-05-09T19:41:38.103Z,50.90
2019-05-09T19:44:07.246Z,51.00
2019-05-09T19:46:36.421Z,50.70
2019-05-09T19:49:05.508Z,51.20
2019-05-09T19:51:34.810Z,50.50
2019-05-09T19:54:04.085Z,50.40
2019-05-09T19:56:33.306Z,50.40
2019-05-09T19:59:02.504Z,50.30
2019-05-09T20:01:31.754Z,50.90
2019-05-09T20:04:00.899Z,50.30
2019-05-09T20:06:30.108Z,50.20
2019-05-09T20:08:59.339Z,50.30
2019-05-09T20:11:47.599Z,50.30
2019-05-09T20:14:41.547Z,50.50
2019-05-09T20:17:10.801Z,50.40
2019-05-09T20:19:39.919Z,50.30
2019-05-09T20:22:09.215Z,50.40
2019-05-09T20:24:38.235Z,50.30
2019-05-09T20:27:07.488Z,50.20
2019-05-09T20:29:36.780Z,50.50
2019-05-09T20:32:06.052Z,50.50
2019-05-09T20:34:35.273Z,50.50
2019-05-09T20:37:04.467Z,50.60
2019-05-09T20:39:34.174Z,50.80
2019-05-09T20:42:03.553Z,51.00
2019-05-09T20:44:32.899Z,51.10
2019-05-09T20:47:02.298Z,51.00
2019-05-09T20:49:31.779Z,50.80
2019-05-09T20:52:01.179Z,50.90
2019-05-09T20:54:31.345Z,50.70
2019-05-09T20:57:00.691Z,50.80
2019-05-09T20:59:30.025Z,51.30
2019-05-09T21:01:59.689Z,51.30
2019-05-09T21:04:29.033Z,51.30
2019-05-09T21:06:58.324Z,51.30
2019-05-09T21:09:28.159Z,51.40
2019-05-09T21:11:57.651Z,51.40
2019-05-09T21:14:27.041Z,51.40
2019-05-09T21:16:56.686Z,51.40
2019-05-09T21:19:26.029Z,51.30
2019-05-09T21:21:56.184Z,51.40
2019-05-09T21:24:25.524Z,51.30
2019-05-09T21:26:54.831Z,51.30
2019-05-09T21:29:24.201Z,51.10
2019-05-09T21:31:53.522Z,51.10
2019-05-09T21:34:22.810Z,51.10
2019-05-09T21:36:51.867Z,51.10
2019-05-09T21:39:23.006Z,51.00
2019-05-09T21:41:52.221Z,50.90
2019-05-09T21:44:21.665Z,51.10
2019-05-09T21:46:50.914Z,51.00
2019-05-09T21:49:20.137Z,51.00
2019-05-09T21:51:49.557Z,51.00
2019-05-09T21:54:18.757Z,51.10
2019-05-09T21:56:47.886Z,51.10
2019-05-09T21:59:17.572Z,50.90
2019-05-09T22:01:46.712Z,51.10
2019-05-09T22:04:15.836Z,51.10
2019-05-09T22:06:44.964Z,51.20
2019-05-09T22:09:14.548Z,51.20
2019-05-09T22:11:43.681Z,51.40
2019-05-09T22:14:12.805Z,51.30
2019-05-09T22:16:42.749Z,51.40
2019-05-09T22:19:11.828Z,51.50
2019-05-09T22:21:40.862Z,51.50
2019-05-09T22:24:10.006Z,51.70
2019-05-09T22:26:39.102Z,51.80
2019-05-09T22:29:08.178Z,51.80
2019-05-09T22:31:37.349Z,51.70
2019-05-09T22:34:06.529Z,51.90
2019-05-09T22:36:35.656Z,52.00
2019-05-09T22:39:05.953Z,51.90
2019-05-09T22:41:35.065Z,52.20
2019-05-09T22:44:04.515Z,52.00
2019-05-09T22:46:33.611Z,52.00
2019-05-09T22:49:02.663Z,52.20
2019-05-09T22:51:31.789Z,52.30
2019-05-09T22:54:12.419Z,52.10
2019-05-09T22:56:32.064Z,52.30
2019-05-09T22:59:01.277Z,52.50
2019-05-09T23:01:30.427Z,52.50
2019-05-09T23:03:59.584Z,52.60
2019-05-09T23:06:28.585Z,52.80
2019-05-09T23:08:57.732Z,53.00
2019-05-09T23:11:26.897Z,52.90
2019-05-09T23:13:56.037Z,52.90
2019-05-09T23:16:26.070Z,52.80
2019-05-09T23:18:55.430Z,53.00
2019-05-09T23:21:27.238Z,53.10
2019-05-09T23:24:02.058Z,53.00
2019-05-09T23:26:31.171Z,53.00
2019-05-09T23:29:00.331Z,53.00
2019-05-09T23:31:37.679Z,53.00
2019-05-09T23:34:06.788Z,53.00
2019-05-09T23:36:35.956Z,53.20
2019-05-09T23:39:12.220Z,53.20
2019-05-09T23:41:41.240Z,53.10
2019-05-09T23:44:10.729Z,53.10
2019-05-09T23:46:39.808Z,53.60
2019-05-09T23:49:09.017Z,53.90
2019-05-09T23:51:45.555Z,53.70
2019-05-09T23:54:45.236Z,53.60
2019-05-09T23:57:21.201Z,54.00
